sensor_id;sensor_type;location;lat;lon;timestamp;temperature;humidity
13982;DHT22;7065;50.880;5.502;2023-07-24T00:00:47;17.60;99.90
13982;DHT22;7065;50.880;5.502;2023-07-24T00:03:13;17.60;99.90
13982;DHT22;7065;50.880;5.502;2023-07-24T00:05:39;17.50;99.90
13982;DHT22;7065;50.880;5.502;2023-07-24T00:08:04;17.50;99.90
13982;DHT22;7065;50.880;5.502;2023-07-24T00:10:31;17.50;99.90
13982;DHT22;7065;50.880;5.502;2023-07-24T00:12:56;17.50;99.90
13982;DHT22;7065;50.880;5.502;2023-07-24T00:15:22;17.50;99.90
13982;DHT22;7065;50.880;5.502;2023-07-24T00:17:48;17.50;99.90
13982;DHT22;7065;50.880;5.502;2023-07-24T00:20:13;17.60;99.90
13982;DHT22;7065;50.880;5.502;2023-07-24T00:22:39;17.60;99.90
13982;DHT22;7065;50.880;5.502;2023-07-24T00:25:06;17.60;99.90
13982;DHT22;7065;50.880;5.502;2023-07-24T00:27:31;17.70;99.90
13982;DHT22;7065;50.880;5.502;2023-07-24T00:29:57;17.70;99.90
13982;DHT22;7065;50.880;5.502;2023-07-24T00:32:23;17.70;99.90
13982;DHT22;7065;50.880;5.502;2023-07-24T00:34:48;17.80;99.90
13982;DHT22;7065;50.880;5.502;2023-07-24T00:37:15;17.80;99.90
13982;DHT22;7065;50.880;5.502;2023-07-24T00:39:40;17.90;99.90
13982;DHT22;7065;50.880;5.502;2023-07-24T00:42:06;17.90;99.90
13982;DHT22;7065;50.880;5.502;2023-07-24T00:44:32;17.90;99.90
13982;DHT22;7065;50.880;5.502;2023-07-24T00:46:58;17.90;99.90
13982;DHT22;7065;50.880;5.502;2023-07-24T00:49:24;17.90;99.90
13982;DHT22;7065;50.880;5.502;2023-07-24T00:51:50;17.90;99.90
13982;DHT22;7065;50.880;5.502;2023-07-24T00:54:17;17.90;99.90
13982;DHT22;7065;50.880;5.502;2023-07-24T00:56:45;17.90;99.90
13982;DHT22;7065;50.880;5.502;2023-07-24T00:59:11;17.80;99.90
13982;DHT22;7065;50.880;5.502;2023-07-24T01:01:37;17.90;99.90
13982;DHT22;7065;50.880;5.502;2023-07-24T01:04:05;17.80;99.90
13982;DHT22;7065;50.880;5.502;2023-07-24T01:06:32;17.80;99.90
13982;DHT22;7065;50.880;5.502;2023-07-24T01:08:58;17.90;99.90
13982;DHT22;7065;50.880;5.502;2023-07-24T01:11:36;17.90;99.90
13982;DHT22;7065;50.880;5.502;2023-07-24T01:14:24;17.90;99.90
13982;DHT22;7065;50.880;5.502;2023-07-24T01:16:54;17.90;99.90
13982;DHT22;7065;50.880;5.502;2023-07-24T01:19:43;18.00;99.90
13982;DHT22;7065;50.880;5.502;2023-07-24T01:27:32;18.00;99.90
13982;DHT22;7065;50.880;5.502;2023-07-24T01:29:57;18.00;99.90
13982;DHT22;7065;50.880;5.502;2023-07-24T01:32:23;18.00;99.90
13982;DHT22;7065;50.880;5.502;2023-07-24T01:34:50;18.00;99.90
13982;DHT22;7065;50.880;5.502;2023-07-24T01:37:16;18.00;99.90
13982;DHT22;7065;50.880;5.502;2023-07-24T01:39:43;18.00;99.90
13982;DHT22;7065;50.880;5.502;2023-07-24T01:42:09;18.00;99.90
13982;DHT22;7065;50.880;5.502;2023-07-24T01:44:35;18.00;99.90
13982;DHT22;7065;50.880;5.502;2023-07-24T01:47:01;18.00;99.90
13982;DHT22;7065;50.880;5.502;2023-07-24T01:49:27;17.90;99.90
13982;DHT22;7065;50.880;5.502;2023-07-24T01:51:52;17.90;99.90
13982;DHT22;7065;50.880;5.502;2023-07-24T01:54:18;17.90;99.90
13982;DHT22;7065;50.880;5.502;2023-07-24T01:56:44;17.80;99.90
13982;DHT22;7065;50.880;5.502;2023-07-24T01:59:10;17.80;99.90
13982;DHT22;7065;50.880;5.502;2023-07-24T02:01:35;17.80;99.90
13982;DHT22;7065;50.880;5.502;2023-07-24T02:04:02;17.80;99.90
13982;DHT22;7065;50.880;5.502;2023-07-24T02:06:27;17.70;99.90
13982;DHT22;7065;50.880;5.502;2023-07-24T02:08:53;17.70;99.90
13982;DHT22;7065;50.880;5.502;2023-07-24T02:11:19;17.70;99.90
13982;DHT22;7065;50.880;5.502;2023-07-24T02:13:44;17.70;99.90
13982;DHT22;7065;50.880;5.502;2023-07-24T02:16:11;17.60;99.90
13982;DHT22;7065;50.880;5.502;2023-07-24T02:18:38;17.60;99.90
13982;DHT22;7065;50.880;5.502;2023-07-24T02:21:04;17.60;99.90
13982;DHT22;7065;50.880;5.502;2023-07-24T02:23:29;17.60;99.90
13982;DHT22;7065;50.880;5.502;2023-07-24T02:25:55;17.60;99.90
13982;DHT22;7065;50.880;5.502;2023-07-24T02:28:21;17.60;99.90
13982;DHT22;7065;50.880;5.502;2023-07-24T02:30:47;17.60;99.90
13982;DHT22;7065;50.880;5.502;2023-07-24T02:33:13;17.60;99.90
13982;DHT22;7065;50.880;5.502;2023-07-24T02:35:40;17.50;99.90
13982;DHT22;7065;50.880;5.502;2023-07-24T02:38:06;17.60;99.90
13982;DHT22;7065;50.880;5.502;2023-07-24T02:40:32;17.60;99.90
13982;DHT22;7065;50.880;5.502;2023-07-24T02:42:58;17.60;99.90
13982;DHT22;7065;50.880;5.502;2023-07-24T02:45:23;17.60;99.90
13982;DHT22;7065;50.880;5.502;2023-07-24T02:47:49;17.60;99.90
13982;DHT22;7065;50.880;5.502;2023-07-24T02:50:14;17.60;99.90
13982;DHT22;7065;50.880;5.502;2023-07-24T02:52:40;17.60;99.90
13982;DHT22;7065;50.880;5.502;2023-07-24T02:55:06;17.60;99.90
13982;DHT22;7065;50.880;5.502;2023-07-24T02:57:32;17.60;99.90
13982;DHT22;7065;50.880;5.502;2023-07-24T02:59:57;17.60;99.90
13982;DHT22;7065;50.880;5.502;2023-07-24T03:02:23;17.60;99.90
13982;DHT22;7065;50.880;5.502;2023-07-24T03:04:49;17.50;99.90
13982;DHT22;7065;50.880;5.502;2023-07-24T03:07:14;17.50;99.90
13982;DHT22;7065;50.880;5.502;2023-07-24T03:09:40;17.50;99.90
13982;DHT22;7065;50.880;5.502;2023-07-24T03:12:06;17.50;99.90
13982;DHT22;7065;50.880;5.502;2023-07-24T03:14:32;17.40;99.90
13982;DHT22;7065;50.880;5.502;2023-07-24T03:16:58;17.40;99.90
13982;DHT22;7065;50.880;5.502;2023-07-24T03:19:23;17.40;99.90
13982;DHT22;7065;50.880;5.502;2023-07-24T03:21:49;17.40;99.90
13982;DHT22;7065;50.880;5.502;2023-07-24T03:24:16;17.40;99.90
13982;DHT22;7065;50.880;5.502;2023-07-24T03:26:42;17.30;99.90
13982;DHT22;7065;50.880;5.502;2023-07-24T03:29:08;17.30;99.90
13982;DHT22;7065;50.880;5.502;2023-07-24T03:31:33;17.30;99.90
13982;DHT22;7065;50.880;5.502;2023-07-24T03:33:59;17.30;99.90
13982;DHT22;7065;50.880;5.502;2023-07-24T03:36:25;17.30;99.90
13982;DHT22;7065;50.880;5.502;2023-07-24T03:38:50;17.30;99.90
13982;DHT22;7065;50.880;5.502;2023-07-24T03:41:16;17.30;99.90
13982;DHT22;7065;50.880;5.502;2023-07-24T03:43:42;17.30;99.90
13982;DHT22;7065;50.880;5.502;2023-07-24T03:46:07;17.30;99.90
13982;DHT22;7065;50.880;5.502;2023-07-24T03:48:33;17.30;99.90
13982;DHT22;7065;50.880;5.502;2023-07-24T03:51:00;17.30;99.90
13982;DHT22;7065;50.880;5.502;2023-07-24T03:53:26;17.30;99.90
13982;DHT22;7065;50.880;5.502;2023-07-24T03:55:53;17.30;99.90
13982;DHT22;7065;50.880;5.502;2023-07-24T03:58:19;17.30;99.90
13982;DHT22;7065;50.880;5.502;2023-07-24T04:00:45;17.30;99.90
13982;DHT22;7065;50.880;5.502;2023-07-24T04:03:11;17.30;99.90
13982;DHT22;7065;50.880;5.502;2023-07-24T04:05:37;17.20;99.90
13982;DHT22;7065;50.880;5.502;2023-07-24T04:08:03;17.20;99.90
13982;DHT22;7065;50.880;5.502;2023-07-24T04:10:29;17.20;99.90
13982;DHT22;7065;50.880;5.502;2023-07-24T04:12:56;17.20;99.90
13982;DHT22;7065;50.880;5.502;2023-07-24T04:15:22;17.20;99.90
13982;DHT22;7065;50.880;5.502;2023-07-24T04:17:48;17.20;99.90
13982;DHT22;7065;50.880;5.502;2023-07-24T04:20:14;17.20;99.90
13982;DHT22;7065;50.880;5.502;2023-07-24T04:22:39;17.20;99.90
13982;DHT22;7065;50.880;5.502;2023-07-24T04:25:05;17.20;99.90
13982;DHT22;7065;50.880;5.502;2023-07-24T04:27:31;17.20;99.90
13982;DHT22;7065;50.880;5.502;2023-07-24T04:29:57;17.20;99.90
13982;DHT22;7065;50.880;5.502;2023-07-24T04:32:22;17.30;99.90
13982;DHT22;7065;50.880;5.502;2023-07-24T04:34:48;17.30;99.90
13982;DHT22;7065;50.880;5.502;2023-07-24T04:37:14;17.30;99.90
13982;DHT22;7065;50.880;5.502;2023-07-24T04:39:40;17.30;99.90
13982;DHT22;7065;50.880;5.502;2023-07-24T04:42:06;17.30;99.90
13982;DHT22;7065;50.880;5.502;2023-07-24T04:44:32;17.30;99.90
13982;DHT22;7065;50.880;5.502;2023-07-24T04:46:58;17.20;99.90
13982;DHT22;7065;50.880;5.502;2023-07-24T04:49:24;17.30;99.90
13982;DHT22;7065;50.880;5.502;2023-07-24T04:51:50;17.30;99.90
13982;DHT22;7065;50.880;5.502;2023-07-24T04:54:17;17.30;99.90
13982;DHT22;7065;50.880;5.502;2023-07-24T04:56:43;17.30;99.90
13982;DHT22;7065;50.880;5.502;2023-07-24T04:59:08;17.30;99.90
13982;DHT22;7065;50.880;5.502;2023-07-24T05:01:34;17.30;99.90
13982;DHT22;7065;50.880;5.502;2023-07-24T05:04:00;17.40;99.90
13982;DHT22;7065;50.880;5.502;2023-07-24T05:06:26;17.40;99.90
13982;DHT22;7065;50.880;5.502;2023-07-24T05:08:52;17.40;99.90
13982;DHT22;7065;50.880;5.502;2023-07-24T05:11:18;17.50;99.90
13982;DHT22;7065;50.880;5.502;2023-07-24T05:13:44;17.50;99.90
13982;DHT22;7065;50.880;5.502;2023-07-24T05:16:10;17.60;99.90
13982;DHT22;7065;50.880;5.502;2023-07-24T05:18:36;17.60;99.90
13982;DHT22;7065;50.880;5.502;2023-07-24T05:21:01;17.70;99.90
13982;DHT22;7065;50.880;5.502;2023-07-24T05:23:27;17.70;99.90
13982;DHT22;7065;50.880;5.502;2023-07-24T05:25:59;17.70;99.90
13982;DHT22;7065;50.880;5.502;2023-07-24T05:28:26;17.70;99.90
13982;DHT22;7065;50.880;5.502;2023-07-24T05:30:52;17.70;99.90
13982;DHT22;7065;50.880;5.502;2023-07-24T05:33:18;17.70;99.90
13982;DHT22;7065;50.880;5.502;2023-07-24T05:35:44;17.70;99.90
13982;DHT22;7065;50.880;5.502;2023-07-24T05:38:10;17.80;99.90
13982;DHT22;7065;50.880;5.502;2023-07-24T05:40:35;17.90;99.90
13982;DHT22;7065;50.880;5.502;2023-07-24T05:43:01;17.90;99.90
13982;DHT22;7065;50.880;5.502;2023-07-24T05:45:27;17.90;99.90
13982;DHT22;7065;50.880;5.502;2023-07-24T05:47:53;18.00;99.90
13982;DHT22;7065;50.880;5.502;2023-07-24T05:50:19;17.90;99.90
13982;DHT22;7065;50.880;5.502;2023-07-24T05:52:44;18.00;99.90
13982;DHT22;7065;50.880;5.502;2023-07-24T05:55:11;18.00;99.90
13982;DHT22;7065;50.880;5.502;2023-07-24T05:57:36;18.10;99.90
13982;DHT22;7065;50.880;5.502;2023-07-24T06:00:04;18.10;99.90
13982;DHT22;7065;50.880;5.502;2023-07-24T06:02:30;18.10;99.90
13982;DHT22;7065;50.880;5.502;2023-07-24T06:04:55;18.10;99.90
13982;DHT22;7065;50.880;5.502;2023-07-24T06:07:21;18.10;99.90
13982;DHT22;7065;50.880;5.502;2023-07-24T06:09:47;18.00;99.90
13982;DHT22;7065;50.880;5.502;2023-07-24T06:12:13;17.90;99.90
13982;DHT22;7065;50.880;5.502;2023-07-24T06:14:38;17.80;99.90
13982;DHT22;7065;50.880;5.502;2023-07-24T06:17:04;17.80;99.90
13982;DHT22;7065;50.880;5.502;2023-07-24T06:19:30;17.70;99.90
13982;DHT22;7065;50.880;5.502;2023-07-24T06:21:56;17.70;99.90
13982;DHT22;7065;50.880;5.502;2023-07-24T06:24:22;17.70;99.90
13982;DHT22;7065;50.880;5.502;2023-07-24T06:26:49;17.70;99.90
13982;DHT22;7065;50.880;5.502;2023-07-24T06:29:15;17.70;99.90
13982;DHT22;7065;50.880;5.502;2023-07-24T06:31:41;17.60;99.90
13982;DHT22;7065;50.880;5.502;2023-07-24T06:34:06;17.60;99.90
13982;DHT22;7065;50.880;5.502;2023-07-24T06:36:32;17.60;99.90
13982;DHT22;7065;50.880;5.502;2023-07-24T06:38:58;17.60;99.90
13982;DHT22;7065;50.880;5.502;2023-07-24T06:41:23;17.60;99.90
13982;DHT22;7065;50.880;5.502;2023-07-24T06:43:51;17.70;99.90
13982;DHT22;7065;50.880;5.502;2023-07-24T06:46:16;17.80;99.90
13982;DHT22;7065;50.880;5.502;2023-07-24T06:48:42;17.90;99.90
13982;DHT22;7065;50.880;5.502;2023-07-24T06:51:08;18.10;99.90
13982;DHT22;7065;50.880;5.502;2023-07-24T06:53:34;18.20;99.90
13982;DHT22;7065;50.880;5.502;2023-07-24T06:55:59;18.20;99.90
13982;DHT22;7065;50.880;5.502;2023-07-24T06:58:25;18.20;99.90
13982;DHT22;7065;50.880;5.502;2023-07-24T07:00:51;18.20;99.90
13982;DHT22;7065;50.880;5.502;2023-07-24T07:03:16;18.10;99.90
13982;DHT22;7065;50.880;5.502;2023-07-24T07:05:42;18.10;99.90
13982;DHT22;7065;50.880;5.502;2023-07-24T07:08:08;18.00;99.90
13982;DHT22;7065;50.880;5.502;2023-07-24T07:10:33;17.90;99.90
13982;DHT22;7065;50.880;5.502;2023-07-24T07:12:59;17.90;99.90
13982;DHT22;7065;50.880;5.502;2023-07-24T07:15:25;17.90;99.90
13982;DHT22;7065;50.880;5.502;2023-07-24T07:17:51;18.00;99.90
13982;DHT22;7065;50.880;5.502;2023-07-24T07:20:17;18.10;99.90
13982;DHT22;7065;50.880;5.502;2023-07-24T07:22:42;18.20;99.90
13982;DHT22;7065;50.880;5.502;2023-07-24T07:25:08;18.30;99.90
13982;DHT22;7065;50.880;5.502;2023-07-24T07:27:34;18.50;99.90
13982;DHT22;7065;50.880;5.502;2023-07-24T07:29:59;18.50;99.90
13982;DHT22;7065;50.880;5.502;2023-07-24T07:32:25;18.50;99.90
13982;DHT22;7065;50.880;5.502;2023-07-24T07:34:52;18.60;99.90
13982;DHT22;7065;50.880;5.502;2023-07-24T07:37:18;18.70;99.90
13982;DHT22;7065;50.880;5.502;2023-07-24T07:39:43;18.70;99.90
13982;DHT22;7065;50.880;5.502;2023-07-24T07:42:09;18.70;99.90
13982;DHT22;7065;50.880;5.502;2023-07-24T07:44:34;18.70;99.90
13982;DHT22;7065;50.880;5.502;2023-07-24T07:47:00;18.60;99.90
13982;DHT22;7065;50.880;5.502;2023-07-24T07:49:26;18.70;99.90
13982;DHT22;7065;50.880;5.502;2023-07-24T07:51:51;18.80;99.90
13982;DHT22;7065;50.880;5.502;2023-07-24T07:54:17;18.90;99.90
13982;DHT22;7065;50.880;5.502;2023-07-24T07:56:43;18.90;99.90
13982;DHT22;7065;50.880;5.502;2023-07-24T07:59:09;19.00;99.90
13982;DHT22;7065;50.880;5.502;2023-07-24T08:01:36;19.00;99.90
13982;DHT22;7065;50.880;5.502;2023-07-24T08:04:04;19.00;99.90
13982;DHT22;7065;50.880;5.502;2023-07-24T08:06:30;19.00;99.90
13982;DHT22;7065;50.880;5.502;2023-07-24T08:08:56;19.10;99.90
13982;DHT22;7065;50.880;5.502;2023-07-24T08:11:21;19.20;99.90
13982;DHT22;7065;50.880;5.502;2023-07-24T08:13:47;19.20;99.90
13982;DHT22;7065;50.880;5.502;2023-07-24T08:16:14;19.20;99.90
13982;DHT22;7065;50.880;5.502;2023-07-24T08:18:46;19.20;99.90
13982;DHT22;7065;50.880;5.502;2023-07-24T08:21:14;19.20;99.90
13982;DHT22;7065;50.880;5.502;2023-07-24T08:23:40;19.40;99.90
13982;DHT22;7065;50.880;5.502;2023-07-24T08:26:06;19.30;99.90
13982;DHT22;7065;50.880;5.502;2023-07-24T08:28:32;19.30;99.90
13982;DHT22;7065;50.880;5.502;2023-07-24T08:30:59;19.40;99.90
13982;DHT22;7065;50.880;5.502;2023-07-24T08:33:26;19.40;99.90
13982;DHT22;7065;50.880;5.502;2023-07-24T08:36:05;19.40;99.90
13982;DHT22;7065;50.880;5.502;2023-07-24T08:38:31;19.30;99.90
13982;DHT22;7065;50.880;5.502;2023-07-24T08:41:15;19.20;99.90
13982;DHT22;7065;50.880;5.502;2023-07-24T08:43:42;19.20;99.90
13982;DHT22;7065;50.880;5.502;2023-07-24T08:46:09;19.20;99.90
13982;DHT22;7065;50.880;5.502;2023-07-24T08:48:42;19.20;99.90
13982;DHT22;7065;50.880;5.502;2023-07-24T08:51:09;19.30;99.90
13982;DHT22;7065;50.880;5.502;2023-07-24T08:53:37;19.40;99.90
13982;DHT22;7065;50.880;5.502;2023-07-24T08:56:04;19.50;99.90
13982;DHT22;7065;50.880;5.502;2023-07-24T08:58:30;19.50;99.90
13982;DHT22;7065;50.880;5.502;2023-07-24T09:00:59;19.40;99.90
13982;DHT22;7065;50.880;5.502;2023-07-24T09:03:25;19.40;99.90
13982;DHT22;7065;50.880;5.502;2023-07-24T09:05:51;19.30;99.90
13982;DHT22;7065;50.880;5.502;2023-07-24T09:08:30;19.30;99.90
13982;DHT22;7065;50.880;5.502;2023-07-24T09:10:57;19.20;99.90
13982;DHT22;7065;50.880;5.502;2023-07-24T09:13:23;19.10;99.90
13982;DHT22;7065;50.880;5.502;2023-07-24T09:15:48;19.10;99.90
13982;DHT22;7065;50.880;5.502;2023-07-24T09:18:14;19.00;99.90
13982;DHT22;7065;50.880;5.502;2023-07-24T09:20:42;19.00;99.90
13982;DHT22;7065;50.880;5.502;2023-07-24T09:23:09;19.00;99.90
13982;DHT22;7065;50.880;5.502;2023-07-24T09:25:36;19.00;99.90
13982;DHT22;7065;50.880;5.502;2023-07-24T09:28:20;19.00;99.90
13982;DHT22;7065;50.880;5.502;2023-07-24T09:30:57;19.00;99.90
13982;DHT22;7065;50.880;5.502;2023-07-24T09:33:37;18.90;99.90
13982;DHT22;7065;50.880;5.502;2023-07-24T09:36:04;18.80;99.90
13982;DHT22;7065;50.880;5.502;2023-07-24T09:38:30;18.80;99.90
13982;DHT22;7065;50.880;5.502;2023-07-24T09:40:57;18.70;99.90
13982;DHT22;7065;50.880;5.502;2023-07-24T09:43:24;18.70;99.90
13982;DHT22;7065;50.880;5.502;2023-07-24T09:45:51;18.70;99.90
13982;DHT22;7065;50.880;5.502;2023-07-24T09:48:18;18.80;99.90
13982;DHT22;7065;50.880;5.502;2023-07-24T09:50:46;18.70;99.90
13982;DHT22;7065;50.880;5.502;2023-07-24T09:55:58;18.40;99.90
13982;DHT22;7065;50.880;5.502;2023-07-24T09:58:25;18.30;99.90
13982;DHT22;7065;50.880;5.502;2023-07-24T10:00:52;18.10;99.90
13982;DHT22;7065;50.880;5.502;2023-07-24T10:03:18;18.10;99.90
13982;DHT22;7065;50.880;5.502;2023-07-24T10:05:46;18.10;99.90
13982;DHT22;7065;50.880;5.502;2023-07-24T10:08:14;18.20;99.90
13982;DHT22;7065;50.880;5.502;2023-07-24T10:10:41;18.20;99.90
13982;DHT22;7065;50.880;5.502;2023-07-24T10:13:08;18.30;99.90
13982;DHT22;7065;50.880;5.502;2023-07-24T10:15:40;18.30;99.90
13982;DHT22;7065;50.880;5.502;2023-07-24T10:18:07;18.30;99.90
13982;DHT22;7065;50.880;5.502;2023-07-24T10:20:38;18.40;99.90
13982;DHT22;7065;50.880;5.502;2023-07-24T10:23:07;18.30;99.90
13982;DHT22;7065;50.880;5.502;2023-07-24T10:25:35;17.90;99.90
13982;DHT22;7065;50.880;5.502;2023-07-24T10:28:06;17.60;99.90
13982;DHT22;7065;50.880;5.502;2023-07-24T10:30:39;17.50;99.90
13982;DHT22;7065;50.880;5.502;2023-07-24T10:33:19;17.50;99.90
13982;DHT22;7065;50.880;5.502;2023-07-24T10:35:47;17.50;99.90
13982;DHT22;7065;50.880;5.502;2023-07-24T10:38:15;17.50;99.90
13982;DHT22;7065;50.880;5.502;2023-07-24T10:40:42;17.60;99.90
13982;DHT22;7065;50.880;5.502;2023-07-24T10:43:09;17.70;99.90
13982;DHT22;7065;50.880;5.502;2023-07-24T10:48:08;17.90;99.90
13982;DHT22;7065;50.880;5.502;2023-07-24T10:50:41;17.90;99.90
13982;DHT22;7065;50.880;5.502;2023-07-24T10:53:11;18.00;99.90
13982;DHT22;7065;50.880;5.502;2023-07-24T10:55:37;18.10;99.90
13982;DHT22;7065;50.880;5.502;2023-07-24T10:58:03;18.00;99.90
13982;DHT22;7065;50.880;5.502;2023-07-24T11:00:29;17.80;99.90
13982;DHT22;7065;50.880;5.502;2023-07-24T11:02:54;17.70;99.90
13982;DHT22;7065;50.880;5.502;2023-07-24T11:05:23;17.70;99.90
13982;DHT22;7065;50.880;5.502;2023-07-24T11:07:50;17.80;99.90
13982;DHT22;7065;50.880;5.502;2023-07-24T11:10:20;17.90;99.90
13982;DHT22;7065;50.880;5.502;2023-07-24T11:12:46;17.90;99.90
13982;DHT22;7065;50.880;5.502;2023-07-24T11:15:13;17.90;99.90
13982;DHT22;7065;50.880;5.502;2023-07-24T11:17:40;18.00;99.90
13982;DHT22;7065;50.880;5.502;2023-07-24T11:20:15;18.00;99.90
13982;DHT22;7065;50.880;5.502;2023-07-24T11:22:42;18.00;99.90
13982;DHT22;7065;50.880;5.502;2023-07-24T11:25:10;18.00;99.90
13982;DHT22;7065;50.880;5.502;2023-07-24T11:27:42;17.90;99.90
13982;DHT22;7065;50.880;5.502;2023-07-24T11:30:12;17.70;99.90
13982;DHT22;7065;50.880;5.502;2023-07-24T11:32:44;17.60;99.90
13982;DHT22;7065;50.880;5.502;2023-07-24T11:35:10;17.60;99.90
13982;DHT22;7065;50.880;5.502;2023-07-24T11:37:36;17.60;99.90
13982;DHT22;7065;50.880;5.502;2023-07-24T11:40:04;17.70;99.90
13982;DHT22;7065;50.880;5.502;2023-07-24T11:42:37;17.80;99.90
13982;DHT22;7065;50.880;5.502;2023-07-24T11:45:03;18.00;99.90
13982;DHT22;7065;50.880;5.502;2023-07-24T11:47:29;18.10;99.90
13982;DHT22;7065;50.880;5.502;2023-07-24T11:50:01;18.20;99.90
13982;DHT22;7065;50.880;5.502;2023-07-24T11:52:44;18.30;99.90
13982;DHT22;7065;50.880;5.502;2023-07-24T11:55:12;18.40;99.90
13982;DHT22;7065;50.880;5.502;2023-07-24T11:57:38;18.40;99.90
13982;DHT22;7065;50.880;5.502;2023-07-24T12:00:05;18.50;99.90
13982;DHT22;7065;50.880;5.502;2023-07-24T12:02:32;18.50;99.90
13982;DHT22;7065;50.880;5.502;2023-07-24T12:05:01;18.60;99.90
13982;DHT22;7065;50.880;5.502;2023-07-24T12:07:35;18.80;99.90
13982;DHT22;7065;50.880;5.502;2023-07-24T12:10:05;19.00;99.90
13982;DHT22;7065;50.880;5.502;2023-07-24T12:12:40;19.20;99.90
13982;DHT22;7065;50.880;5.502;2023-07-24T12:15:06;19.60;99.90
13982;DHT22;7065;50.880;5.502;2023-07-24T12:17:32;19.70;99.90
13982;DHT22;7065;50.880;5.502;2023-07-24T12:19:58;19.70;99.90
13982;DHT22;7065;50.880;5.502;2023-07-24T12:22:24;19.70;99.90
13982;DHT22;7065;50.880;5.502;2023-07-24T12:24:49;19.80;99.90
13982;DHT22;7065;50.880;5.502;2023-07-24T12:27:15;19.90;99.90
13982;DHT22;7065;50.880;5.502;2023-07-24T12:29:41;20.10;99.90
13982;DHT22;7065;50.880;5.502;2023-07-24T12:32:07;20.00;99.90
13982;DHT22;7065;50.880;5.502;2023-07-24T12:34:33;19.90;99.90
13982;DHT22;7065;50.880;5.502;2023-07-24T12:36:59;19.80;99.90
13982;DHT22;7065;50.880;5.502;2023-07-24T12:39:24;19.70;99.90
13982;DHT22;7065;50.880;5.502;2023-07-24T12:41:50;19.70;99.90
13982;DHT22;7065;50.880;5.502;2023-07-24T12:44:16;19.60;99.90
13982;DHT22;7065;50.880;5.502;2023-07-24T12:46:41;19.60;99.90
13982;DHT22;7065;50.880;5.502;2023-07-24T12:49:07;19.60;99.90
13982;DHT22;7065;50.880;5.502;2023-07-24T12:51:33;19.60;99.90
13982;DHT22;7065;50.880;5.502;2023-07-24T12:53:58;19.40;99.90
13982;DHT22;7065;50.880;5.502;2023-07-24T12:56:24;19.30;99.90
13982;DHT22;7065;50.880;5.502;2023-07-24T12:58:49;19.10;99.90
13982;DHT22;7065;50.880;5.502;2023-07-24T13:01:15;18.90;99.90
13982;DHT22;7065;50.880;5.502;2023-07-24T13:03:41;18.80;99.90
13982;DHT22;7065;50.880;5.502;2023-07-24T13:06:06;18.80;99.90
13982;DHT22;7065;50.880;5.502;2023-07-24T13:08:32;18.70;99.90
13982;DHT22;7065;50.880;5.502;2023-07-24T13:10:58;18.60;99.90
13982;DHT22;7065;50.880;5.502;2023-07-24T13:13:23;18.60;99.90
13982;DHT22;7065;50.880;5.502;2023-07-24T13:15:49;18.60;99.90
13982;DHT22;7065;50.880;5.502;2023-07-24T13:18:17;18.70;99.90
13982;DHT22;7065;50.880;5.502;2023-07-24T13:20:42;18.90;99.90
13982;DHT22;7065;50.880;5.502;2023-07-24T13:23:08;19.00;99.90
13982;DHT22;7065;50.880;5.502;2023-07-24T13:25:34;19.00;99.90
13982;DHT22;7065;50.880;5.502;2023-07-24T13:27:59;19.20;99.90
13982;DHT22;7065;50.880;5.502;2023-07-24T13:30:25;19.30;99.90
13982;DHT22;7065;50.880;5.502;2023-07-24T13:32:51;19.40;99.90
13982;DHT22;7065;50.880;5.502;2023-07-24T13:35:16;19.40;99.90
13982;DHT22;7065;50.880;5.502;2023-07-24T13:37:42;19.40;99.90
13982;DHT22;7065;50.880;5.502;2023-07-24T13:40:08;19.50;99.90
13982;DHT22;7065;50.880;5.502;2023-07-24T13:42:34;19.60;99.90
13982;DHT22;7065;50.880;5.502;2023-07-24T13:44:59;19.70;99.90
13982;DHT22;7065;50.880;5.502;2023-07-24T13:47:25;19.70;99.90
13982;DHT22;7065;50.880;5.502;2023-07-24T13:49:51;19.80;99.90
13982;DHT22;7065;50.880;5.502;2023-07-24T13:52:17;20.00;99.90
13982;DHT22;7065;50.880;5.502;2023-07-24T13:54:42;20.00;99.90
13982;DHT22;7065;50.880;5.502;2023-07-24T13:57:08;20.00;99.90
13982;DHT22;7065;50.880;5.502;2023-07-24T13:59:35;20.10;99.90
13982;DHT22;7065;50.880;5.502;2023-07-24T14:02:01;20.00;99.90
13982;DHT22;7065;50.880;5.502;2023-07-24T14:04:27;20.10;99.90
13982;DHT22;7065;50.880;5.502;2023-07-24T14:06:52;20.20;99.90
13982;DHT22;7065;50.880;5.502;2023-07-24T14:09:18;20.30;99.90
13982;DHT22;7065;50.880;5.502;2023-07-24T14:11:43;20.30;99.90
13982;DHT22;7065;50.880;5.502;2023-07-24T14:14:09;20.30;99.90
13982;DHT22;7065;50.880;5.502;2023-07-24T14:16:35;20.40;99.90
13982;DHT22;7065;50.880;5.502;2023-07-24T14:19:00;20.60;99.90
13982;DHT22;7065;50.880;5.502;2023-07-24T14:21:26;20.60;99.90
13982;DHT22;7065;50.880;5.502;2023-07-24T14:23:51;20.80;99.90
13982;DHT22;7065;50.880;5.502;2023-07-24T14:26:17;21.10;99.90
13982;DHT22;7065;50.880;5.502;2023-07-24T14:28:43;21.10;99.90
13982;DHT22;7065;50.880;5.502;2023-07-24T14:31:08;21.00;99.90
13982;DHT22;7065;50.880;5.502;2023-07-24T14:33:34;20.80;99.90
13982;DHT22;7065;50.880;5.502;2023-07-24T14:36:00;20.60;99.90
13982;DHT22;7065;50.880;5.502;2023-07-24T14:38:26;20.40;99.90
13982;DHT22;7065;50.880;5.502;2023-07-24T14:40:51;20.50;99.90
13982;DHT22;7065;50.880;5.502;2023-07-24T14:43:17;20.60;99.90
13982;DHT22;7065;50.880;5.502;2023-07-24T14:45:42;20.90;99.90
13982;DHT22;7065;50.880;5.502;2023-07-24T14:48:08;20.80;99.90
13982;DHT22;7065;50.880;5.502;2023-07-24T14:50:34;20.60;99.90
13982;DHT22;7065;50.880;5.502;2023-07-24T14:53:00;20.50;99.90
13982;DHT22;7065;50.880;5.502;2023-07-24T14:55:25;20.50;99.90
13982;DHT22;7065;50.880;5.502;2023-07-24T14:57:51;20.40;99.90
13982;DHT22;7065;50.880;5.502;2023-07-24T15:00:17;20.30;99.90
13982;DHT22;7065;50.880;5.502;2023-07-24T15:02:43;20.10;99.90
13982;DHT22;7065;50.880;5.502;2023-07-24T15:05:09;19.80;99.90
13982;DHT22;7065;50.880;5.502;2023-07-24T15:07:34;19.60;99.90
13982;DHT22;7065;50.880;5.502;2023-07-24T15:10:00;19.40;99.90
13982;DHT22;7065;50.880;5.502;2023-07-24T15:12:26;19.20;99.90
13982;DHT22;7065;50.880;5.502;2023-07-24T15:14:51;19.10;99.90
13982;DHT22;7065;50.880;5.502;2023-07-24T15:17:18;19.00;99.90
13982;DHT22;7065;50.880;5.502;2023-07-24T15:19:44;19.00;99.90
13982;DHT22;7065;50.880;5.502;2023-07-24T15:22:10;19.10;99.90
13982;DHT22;7065;50.880;5.502;2023-07-24T15:24:36;19.10;99.90
13982;DHT22;7065;50.880;5.502;2023-07-24T15:27:04;19.30;99.90
13982;DHT22;7065;50.880;5.502;2023-07-24T15:29:35;19.60;99.90
13982;DHT22;7065;50.880;5.502;2023-07-24T15:32:01;20.00;99.90
13982;DHT22;7065;50.880;5.502;2023-07-24T15:34:26;20.20;99.90
13982;DHT22;7065;50.880;5.502;2023-07-24T15:36:52;20.60;99.90
13982;DHT22;7065;50.880;5.502;2023-07-24T15:39:18;21.00;99.90
13982;DHT22;7065;50.880;5.502;2023-07-24T15:41:44;21.50;99.90
13982;DHT22;7065;50.880;5.502;2023-07-24T15:44:10;21.90;99.90
13982;DHT22;7065;50.880;5.502;2023-07-24T15:46:35;21.70;99.90
13982;DHT22;7065;50.880;5.502;2023-07-24T15:49:01;21.50;99.90
13982;DHT22;7065;50.880;5.502;2023-07-24T15:51:27;21.70;99.90